Time;durP1;ratioP1;P1;durP2;ratioP2;P2;SDS_P1;SDS_P2;PMS_P1;PMS_P2;Temp;Humidity;BMP_temperature;BMP_pressure;BME280_temperature;BME280_humidity;BME280_pressure;Samples;Min_cycle;Max_cycle;Signal;HPM_P1;HPM_P2
2023/04/03 00:00:57;;;;;;;0.20;0.20;;;3.80;99.90;;;3.57;79.50;100572.38;5008186;28;20315;-76
2023/04/03 00:03:24;;;;;;;0.20;0.20;;;;;;;3.56;79.63;100593.22;5006545;28;20293;-75
2023/04/03 00:05:51;;;;;;;0.20;0.20;;;;;;;3.46;80.21;100605.03;5006788;28;20255;-75
2023/04/03 00:08:19;;;;;;;0.20;0.20;;;;;;;3.45;80.68;100616.34;5005389;28;20692;-76
2023/04/03 00:10:47;;;;;;;0.20;0.20;;;;;;;3.41;81.11;100627.50;5004403;28;20315;-75
2023/04/03 00:13:16;;;;;;;0.20;0.20;;;;;;;3.35;81.55;100638.59;5006660;28;20314;-76
2023/04/03 00:15:44;;;;;;;0.30;0.30;;;3.40;99.90;;;3.24;82.04;100647.72;5004310;28;20229;-75
2023/04/03 00:18:11;;;;;;;0.20;0.20;;;;;;;3.15;81.89;100648.22;4997773;28;20322;-76
2023/04/03 00:20:39;;;;;;;0.25;0.25;;;;;;;3.27;81.84;100650.47;5008049;28;20255;-76
2023/04/03 00:23:07;;;;;;;0.20;0.20;;;;;;;3.17;81.95;100651.81;5006164;28;20287;-75
2023/04/03 00:25:34;;;;;;;0.20;0.20;;;3.30;99.90;;;3.18;82.04;100661.44;5001817;28;20311;-77
2023/04/03 00:28:02;;;;;;;0.20;0.20;;;;;;;3.11;82.85;100662.00;5005710;28;20228;-76
2023/04/03 00:30:30;;;;;;;0.20;0.20;;;;;;;3.22;82.42;100675.50;5006914;28;20268;-76
2023/04/03 00:32:57;;;;;;;0.20;0.20;;;;;;;3.18;82.24;100666.66;5004641;28;20315;-76
2023/04/03 00:35:25;;;;;;;0.13;0.13;;;;;;;3.17;82.10;100656.13;5000343;28;20246;-77
2023/04/03 00:37:55;;;;;;;0.20;0.20;;;3.30;99.90;;;3.16;82.04;100644.78;5001438;28;20231;-76
2023/04/03 00:40:25;;;;;;;0.20;0.20;;;3.30;99.90;;;3.16;81.34;100630.81;4999556;28;20716;-76
2023/04/03 00:42:57;;;;;;;0.20;0.20;;;3.20;99.90;;;3.15;81.36;100618.59;4996849;28;20235;-75
2023/04/03 00:45:33;;;;;;;0.30;0.30;;;;;;;3.14;80.99;100612.47;4995817;28;20645;-76
2023/04/03 00:48:05;;;;;;;0.20;0.20;;;3.20;99.90;;;3.08;81.10;100606.09;5001763;28;20656;-76
2023/04/03 00:50:37;;;;;;;0.20;0.20;;;3.10;99.90;;;3.07;81.33;100602.59;4990602;28;20244;-76
2023/04/03 00:53:09;;;;;;;0.20;0.20;;;3.10;99.90;;;3.02;81.53;100609.34;5005879;28;20235;-75
2023/04/03 00:55:38;;;;;;;0.20;0.20;;;3.10;99.90;;;2.94;81.59;100595.06;5003002;28;20286;-75
2023/04/03 00:58:07;;;;;;;0.20;0.20;;;3.00;99.90;;;2.85;82.07;100602.53;5003942;28;20333;-75
2023/04/03 01:00:37;;;;;;;0.20;0.20;;;2.90;99.90;;;2.81;82.62;100617.19;5006292;28;20279;-77
2023/04/03 01:03:05;;;;;;;0.20;0.20;;;;;;;2.77;82.96;100625.72;5003970;28;20697;-75
2023/04/03 01:05:32;;;;;;;0.20;0.20;;;2.80;99.90;;;2.82;82.70;100629.41;5005801;28;20302;-76
2023/04/03 01:08:00;;;;;;;0.28;0.28;;;;;;;2.76;82.99;100626.53;5005901;28;20263;-76
2023/04/03 01:10:27;;;;;;;0.20;0.20;;;;;;;2.67;83.14;100614.78;5003628;28;20642;-75
2023/04/03 01:12:55;;;;;;;0.30;0.30;;;;;;;2.66;83.30;100637.41;5049680;22;20257;-77
2023/04/03 01:15:30;;;;;;;0.20;0.20;;;2.70;99.90;;;2.52;83.78;100630.66;5023562;28;20266;-78
2023/04/03 01:17:58;;;;;;;0.20;0.20;;;2.60;99.90;;;2.51;84.35;100653.25;5009757;28;20310;-76
2023/04/03 01:20:37;;;;;;;0.25;0.25;;;2.70;99.90;;;2.66;84.02;100665.22;4998112;28;20244;-76
2023/04/03 01:23:33;;;;;;;0.30;0.30;;;2.80;99.90;;;2.69;83.49;100642.75;5010012;28;20227;-76
2023/04/03 01:26:00;;;;;;;0.20;0.20;;;;;;;2.55;83.84;100636.91;5003507;28;20289;-76
2023/04/03 01:28:32;;;;;;;0.20;0.20;;;2.60;99.90;;;2.57;83.87;100650.91;5008947;28;20307;-73
2023/04/03 01:31:20;;;;;;;0.30;0.30;;;2.70;99.90;;;2.66;83.22;100640.00;5006866;28;20721;-76
2023/04/03 01:33:47;;;;;;;0.20;0.20;;;;;;;2.65;83.52;100639.94;5009766;28;20219;-76
2023/04/03 01:36:24;;;;;;;0.30;0.30;;;2.70;99.90;;;2.54;83.34;100632.50;5006895;28;20310;-76
2023/04/03 01:38:53;;;;;;;0.20;0.20;;;2.60;99.90;;;2.51;83.51;100634.97;4999184;28;20304;-76
2023/04/03 01:41:20;;;;;;;0.20;0.20;;;2.60;99.90;;;2.53;83.74;100640.25;5012684;28;20315;-74
2023/04/03 01:43:49;;;;;;;0.20;0.20;;;2.60;99.90;;;2.42;83.86;100631.97;5006943;28;20236;-74
2023/04/03 01:46:17;;;;;;;0.20;0.20;;;2.50;99.90;;;2.43;83.83;100635.47;5008309;28;20278;-73
2023/04/03 01:48:44;;;;;;;0.20;0.20;;;2.50;99.90;;;2.39;84.58;100647.47;5009447;28;20723;-73
2023/04/03 01:51:11;;;;;;;0.20;0.20;;;;;;;2.34;84.87;100659.44;5006798;28;20255;-74
2023/04/03 01:53:38;;;;;;;0.20;0.20;;;2.30;99.90;;;2.30;85.55;100665.34;5025561;28;20263;-74
2023/04/03 01:56:06;;;;;;;0.20;0.20;;;;;;;2.36;85.56;100683.88;5006244;28;20252;-74
2023/04/03 01:58:33;;;;;;;0.20;0.20;;;;;;;2.25;85.91;100682.50;5009078;28;20288;-73
2023/04/03 02:01:01;;;;;;;0.20;0.20;;;;;;;2.25;86.29;100695.56;5008537;28;20238;-74
2023/04/03 02:03:29;;;;;;;0.20;0.20;;;;;;;2.19;86.63;100696.16;5011162;28;20235;-74
2023/04/03 02:05:57;;;;;;;0.88;0.88;;;;;;;2.11;87.15;100697.50;5006818;28;20282;-75
2023/04/03 02:08:25;;;;;;;0.20;0.20;;;;;;;2.17;87.71;100721.28;5004097;28;20267;-74
2023/04/03 02:10:52;;;;;;;0.30;0.30;;;;;;;2.11;88.25;100728.81;4999423;28;20228;-73
2023/04/03 02:13:20;;;;;;;0.25;0.25;;;;;;;2.08;88.44;100739.13;4994369;22;20255;-78
2023/04/03 02:15:47;;;;;;;0.30;0.30;;;;;;;2.04;89.01;100755.44;4989876;28;20236;-77
2023/04/03 02:18:15;;;;;;;0.20;0.20;;;;;;;2.01;89.28;100767.44;4989993;28;20319;-77
2023/04/03 02:20:42;;;;;;;0.30;0.30;;;;;;;1.90;90.31;100779.97;4991079;28;20291;-77
2023/04/03 02:23:10;;;;;;;0.20;0.20;;;;;;;1.89;90.92;100792.09;4989459;28;20294;-77
2023/04/03 02:25:37;;;;;;;0.20;0.20;;;2.00;99.90;;;1.82;91.49;100792.63;4985344;28;20334;-78
2023/04/03 02:28:05;;;;;;;0.20;0.20;;;1.90;99.90;;;1.75;92.45;100805.28;4990956;28;20228;-76
2023/04/03 02:30:33;;;;;;;0.30;0.30;;;;;;;1.71;93.10;100819.88;4970429;28;20302;-75
2023/04/03 02:33:01;;;;;;;0.28;0.28;;;;;;;1.53;93.68;100816.34;4990297;28;20497;-75
2023/04/03 02:35:28;;;;;;;0.20;0.20;;;;;;;1.44;94.77;100831.50;4989179;28;20243;-76
2023/04/03 02:37:55;;;;;;;0.20;0.20;;;1.60;99.90;;;1.46;95.58;100842.91;4984708;28;20240;-76
2023/04/03 02:40:23;;;;;;;0.20;0.20;;;;;;;1.44;95.97;100850.63;4989877;28;20286;-76
2023/04/03 02:42:50;;;;;;;0.20;0.20;;;;;;;1.48;96.22;100862.13;4986295;28;20259;-76
2023/04/03 02:45:18;;;;;;;0.20;0.20;;;;;;;1.55;95.96;100865.13;4988514;28;20236;-76
2023/04/03 02:47:45;;;;;;;0.20;0.20;;;1.70;99.90;;;1.54;96.62;100875.47;4991518;28;20236;-75
2023/04/03 02:50:12;;;;;;;0.20;0.20;;;;;;;1.60;97.00;100886.22;4988657;28;20319;-76
2023/04/03 02:52:39;;;;;;;0.20;0.20;;;;;;;1.46;97.28;100887.22;4989449;28;20264;-75
2023/04/03 02:55:07;;;;;;;0.30;0.30;;;1.60;99.90;;;1.47;97.90;100892.50;4993195;28;20232;-75
2023/04/03 02:57:35;;;;;;;0.30;0.30;;;1.60;99.90;;;1.48;98.40;100906.44;4990321;28;20232;-76
2023/04/03 03:00:03;;;;;;;0.20;0.20;;;1.50;99.90;;;1.48;98.64;100909.03;4984479;28;20235;-77
2023/04/03 03:02:30;;;;;;;0.20;0.20;;;;;;;1.54;98.35;100909.34;4992861;28;20646;-77
2023/04/03 03:04:57;;;;;;;0.20;0.20;;;;;;;1.57;98.37;100915.63;4982383;28;20251;-75
2023/04/03 03:07:25;;;;;;;0.20;0.20;;;1.70;99.90;;;1.57;98.30;100917.34;4986909;28;20715;-75
2023/04/03 03:09:52;;;;;;;0.30;0.30;;;1.60;99.90;;;1.49;98.70;100916.03;4989379;28;20287;-77
2023/04/03 03:12:21;;;;;;;0.28;0.28;;;1.60;99.90;;;1.50;98.93;100923.94;4985648;28;20251;-75
2023/04/03 03:14:49;;;;;;;0.20;0.20;;;1.60;99.90;;;1.57;98.81;100928.66;4988854;28;20224;-76
2023/04/03 03:17:17;;;;;;;0.20;0.20;;;1.60;99.90;;;1.54;99.01;100927.59;4984185;28;20585;-76
2023/04/03 03:19:45;;;;;;;0.20;0.20;;;1.60;99.90;;;1.51;99.04;100933.53;4989538;28;20271;-76
2023/04/03 03:22:12;;;;;;;0.30;0.30;;;1.60;99.90;;;1.51;99.05;100938.75;4987833;28;20252;-75
2023/04/03 03:24:39;;;;;;;0.30;0.30;;;2.50;99.90;;;1.47;99.36;100936.81;4986939;28;20307;-75
2023/04/03 03:27:06;;;;;;;0.20;0.20;;;1.60;99.90;;;1.51;99.18;100935.25;4985804;28;20232;-75
2023/04/03 03:29:33;;;;;;;0.30;0.30;;;1.60;99.90;;;1.53;98.93;100938.84;4986182;28;20244;-76
2023/04/03 03:32:00;;;;;;;0.20;0.20;;;1.60;99.90;;;1.58;98.67;100937.38;4985318;28;20332;-75
2023/04/03 03:34:27;;;;;;;0.28;0.28;;;1.70;99.90;;;1.64;98.78;100939.41;4983882;28;20295;-75
2023/04/03 03:36:55;;;;;;;0.30;0.30;;;1.70;99.90;;;1.59;98.52;100940.06;4977205;28;20251;-76
2023/04/03 03:39:22;;;;;;;0.20;0.20;;;;;;;1.60;98.41;100935.75;4982243;28;20315;-75
2023/04/03 03:41:49;;;;;;;0.30;0.30;;;1.70;99.90;;;1.58;98.18;100938.28;4989753;28;20236;-76
2023/04/03 03:44:16;;;;;;;0.20;0.20;;;1.70;99.90;;;1.53;98.53;100931.91;4989783;28;20268;-75
2023/04/03 03:46:43;;;;;;;0.30;0.30;;;1.60;99.90;;;1.52;98.25;100932.72;4990549;28;20256;-76
2023/04/03 03:49:11;;;;;;;0.22;0.22;;;1.80;99.90;;;1.59;97.97;100932.25;4989173;28;20295;-75
2023/04/03 03:51:39;;;;;;;0.20;0.20;;;1.70;99.90;;;1.53;98.07;100926.69;4986015;28;20243;-75
2023/04/03 03:54:07;;;;;;;0.20;0.20;;;1.70;99.90;;;1.49;98.17;100929.97;4990089;28;20256;-75
2023/04/03 03:56:35;;;;;;;0.50;0.50;;;1.60;99.90;;;1.45;98.33;100924.50;4989702;28;20236;-76
2023/04/03 03:59:02;;;;;;;0.28;0.28;;;1.60;99.90;;;1.49;98.25;100931.69;4986610;28;20239;-75
2023/04/03 04:01:29;;;;;;;0.20;0.20;;;1.70;99.90;;;1.56;97.70;100932.06;4987093;28;20236;-75
2023/04/03 04:03:57;;;;;;;0.30;0.30;;;1.60;99.90;;;1.42;98.30;100932.16;4987356;28;20398;-75
2023/04/03 04:06:24;;;;;;;0.20;0.20;;;1.50;99.90;;;1.38;98.29;100932.81;4987129;28;20267;-75
2023/04/03 04:08:52;;;;;;;0.20;0.20;;;;;;;1.42;98.34;100937.38;4984843;28;20236;-75
2023/04/03 04:13:50;;;;;;;0.20;0.20;;;;;;;1.33;98.56;100942.09;4997294;28;20224;-78
2023/04/03 04:16:17;;;;;;;0.20;0.20;;;;;;;1.34;98.57;100936.97;5006968;28;20326;-76
2023/04/03 04:18:45;;;;;;;0.30;0.30;;;;;;;1.28;98.75;100940.09;5021433;28;20245;-77
2023/04/03 04:21:12;;;;;;;0.30;0.30;;;;;;;1.27;99.13;100948.72;5000495;28;20230;-78
2023/04/03 04:23:39;;;;;;;0.20;0.20;;;;;;;1.19;99.38;100946.53;5001844;28;20263;-77
2023/04/03 04:26:07;;;;;;;0.20;0.20;;;;;;;1.17;99.69;100959.47;5025245;28;20254;-77
2023/04/03 04:28:34;;;;;;;0.20;0.20;;;;;;;1.21;99.97;100969.25;5022483;28;20245;-76
2023/04/03 04:31:02;;;;;;;0.20;0.20;;;;;;;1.19;99.81;100957.84;5020320;28;20250;-75
2023/04/03 04:33:30;;;;;;;0.30;0.30;;;;;;;1.19;100.00;100968.25;5028825;28;20265;-75
2023/04/03 04:35:57;;;;;;;0.30;0.30;;;;;;;1.14;100.00;100963.63;5023409;28;20302;-75
2023/04/03 04:38:24;;;;;;;0.20;0.20;;;1.20;99.90;;;1.09;100.00;100965.97;5027876;28;20254;-75
2023/04/03 04:40:52;;;;;;;0.20;0.20;;;;;;;1.10;100.00;100977.28;5025275;28;20334;-75
2023/04/03 04:43:19;;;;;;;0.30;0.30;;;;;;;1.06;100.00;100977.91;5021865;28;20672;-76
2023/04/03 04:45:47;;;;;;;0.30;0.30;;;;;;;1.13;100.00;100985.25;5021089;28;20244;-75
2023/04/03 04:48:14;;;;;;;0.30;0.30;;;1.30;99.90;;;1.11;100.00;100972.16;5029515;28;20317;-75
2023/04/03 04:50:41;;;;;;;0.20;0.20;;;;;;;1.13;100.00;100983.56;5023667;28;20292;-76
2023/04/03 04:53:09;;;;;;;0.20;0.20;;;;;;;1.16;100.00;100993.25;5026070;28;20266;-76
2023/04/03 04:55:36;;;;;;;0.20;0.20;;;;;;;1.13;100.00;100985.25;5006966;28;20234;-76
2023/04/03 04:58:04;;;;;;;0.20;0.20;;;;;;;1.11;100.00;100986.88;5029255;28;20253;-77
2023/04/03 05:00:31;;;;;;;0.28;0.28;;;1.30;99.90;;;1.16;100.00;100993.25;5031617;28;20242;-78
2023/04/03 05:02:58;;;;;;;0.22;0.22;;;;;;;1.17;100.00;100997.66;5026958;28;20269;-77
2023/04/03 05:05:26;;;;;;;0.30;0.30;;;;;;;1.17;100.00;100995.03;5030021;28;20235;-75
2023/04/03 05:07:53;;;;;;;0.30;0.30;;;;;;;1.19;100.00;100999.53;5026738;28;20267;-75
2023/04/03 05:10:20;;;;;;;0.30;0.30;;;;;;;1.25;100.00;101004.19;5034540;28;20260;-75
2023/04/03 05:12:48;;;;;;;0.30;0.30;;;;;;;1.34;100.00;101003.81;5031246;28;20326;-74
2023/04/03 05:15:15;;;;;;;0.20;0.20;;;1.40;99.90;;;1.33;100.00;101002.91;5028737;28;20347;-77
2023/04/03 05:17:42;;;;;;;0.20;0.20;;;1.50;99.90;;;1.32;100.00;101013.25;5029983;28;20313;-76
2023/04/03 05:20:09;;;;;;;0.20;0.20;;;1.40;99.90;;;1.46;100.00;101018.41;5032678;28;20285;-77
2023/04/03 05:22:37;;;;;;;0.20;0.20;;;1.60;99.90;;;1.48;100.00;101014.19;5033170;28;20235;-76
2023/04/03 05:25:05;;;;;;;0.20;0.20;;;1.70;99.90;;;1.53;99.82;101020.53;5029577;28;20247;-76
2023/04/03 05:27:32;;;;;;;0.75;0.75;;;1.70;99.90;;;1.57;100.00;101014.69;5023580;28;20231;-74
2023/04/03 05:30:00;;;;;;;0.30;0.30;;;1.70;99.90;;;1.60;100.00;101020.06;5033064;28;20314;-74
2023/04/03 05:32:27;;;;;;;0.30;0.30;;;1.70;99.90;;;1.62;100.00;101027.97;5030372;28;20292;-74
2023/04/03 05:34:54;;;;;;;0.25;0.25;;;1.80;99.90;;;1.66;100.00;101021.19;5031764;28;20243;-74
2023/04/03 05:37:21;;;;;;;0.20;0.20;;;1.80;99.90;;;1.74;100.00;101031.22;5011760;28;20293;-74
2023/04/03 05:39:48;;;;;;;0.30;0.30;;;1.80;99.90;;;1.75;99.87;101032.13;5025418;28;20225;-74
2023/04/03 05:42:16;;;;;;;0.30;0.30;;;;;;;1.78;99.90;101037.50;5028752;28;20227;-74
2023/04/03 05:44:44;;;;;;;0.20;0.20;;;1.90;99.90;;;1.81;99.84;101045.50;5028680;28;20293;-75
2023/04/03 05:47:11;;;;;;;0.30;0.30;;;1.90;99.90;;;1.81;99.94;101048.09;5033653;28;20322;-75
2023/04/03 05:49:40;;;;;;;0.20;0.20;;;;;;;1.85;100.00;101053.56;5029385;28;20241;-75
2023/04/03 05:52:33;;;;;;;0.20;0.20;;;2.00;99.90;;;1.95;100.00;101074.91;5027920;28;20746;-77
2023/04/03 05:55:01;;;;;;;0.20;0.20;;;;;;;2.00;100.00;101079.56;5026107;28;20231;-74
2023/04/03 05:57:28;;;;;;;0.20;0.20;;;;;;;2.02;100.00;101080.53;5030288;28;20231;-74
2023/04/03 05:59:56;;;;;;;0.20;0.20;;;;;;;2.08;100.00;101083.47;5030834;28;20239;-74
2023/04/03 06:02:24;;;;;;;0.30;0.30;;;2.20;99.90;;;2.12;100.00;101081.94;5029228;28;20231;-74
2023/04/03 06:04:52;;;;;;;0.20;0.20;;;2.40;99.90;;;2.13;100.00;101089.84;5031163;28;20254;-74
2023/04/03 06:07:26;;;;;;;0.20;0.20;;;2.40;99.90;;;2.19;100.00;101103.22;5028165;28;20261;-74
2023/04/03 06:09:55;;;;;;;0.20;0.20;;;2.30;99.90;;;2.22;100.00;101103.38;5019917;28;20273;-74
2023/04/03 06:12:23;;;;;;;0.30;0.30;;;2.30;99.90;;;2.30;100.00;101106.38;5028219;28;20235;-74
2023/04/03 06:14:50;;;;;;;0.20;0.20;;;2.40;99.90;;;2.40;100.00;101126.03;5031708;28;20325;-74
2023/04/03 06:17:18;;;;;;;0.10;0.10;;;2.50;99.90;;;2.45;100.00;101127.19;5028250;28;20247;-74
2023/04/03 06:19:45;;;;;;;0.30;0.30;;;;;;;2.53;100.00;101128.47;5029445;28;20317;-74
2023/04/03 06:22:13;;;;;;;0.30;0.30;;;;;;;2.64;100.00;101132.56;5029787;28;20263;-75
2023/04/03 06:24:40;;;;;;;0.20;0.20;;;;;;;2.73;100.00;101130.44;5029257;28;20269;-74
2023/04/03 06:27:09;;;;;;;0.20;0.20;;;;;;;2.79;100.00;101135.06;5029285;28;20231;-74
2023/04/03 06:29:36;;;;;;;0.20;0.20;;;2.90;99.90;;;2.84;100.00;101147.53;5012339;28;20235;-74
2023/04/03 06:32:04;;;;;;;0.20;0.20;;;2.90;99.90;;;2.91;100.00;101150.47;5030217;28;20653;-74
2023/04/03 06:34:31;;;;;;;0.30;0.30;;;3.00;99.90;;;3.03;100.00;101165.06;5029622;28;20265;-74
2023/04/03 06:36:58;;;;;;;0.77;0.77;;;3.10;99.90;;;3.11;100.00;101168.06;5029985;28;20238;-77
2023/04/03 06:39:25;;;;;;;0.20;0.20;;;3.20;99.90;;;3.12;100.00;101164.63;5026714;28;20266;-76
2023/04/03 06:41:53;;;;;;;0.20;0.20;;;;;;;3.20;100.00;101174.66;5030662;28;20266;-76
2023/04/03 06:44:20;;;;;;;0.20;0.20;;;;;;;3.27;100.00;101175.84;5029014;28;20224;-78
2023/04/03 06:46:48;;;;;;;0.20;0.20;;;3.30;99.90;;;3.30;100.00;101172.50;5029030;28;20703;-76
2023/04/03 06:49:15;;;;;;;0.20;0.20;;;3.40;99.90;;;3.39;100.00;101167.72;5029491;28;20231;-76
2023/04/03 06:51:42;;;;;;;0.30;0.30;;;;;;;3.41;99.82;101163.47;5029739;28;20235;-74
2023/04/03 06:54:10;;;;;;;0.20;0.20;;;;;;;3.40;99.75;101159.06;5027948;28;20265;-74
2023/04/03 06:56:37;;;;;;;0.20;0.20;;;;;;;3.41;99.50;101166.06;5029304;28;20243;-75
2023/04/03 06:59:05;;;;;;;0.32;0.32;;;;;;;3.42;99.32;101162.63;5029411;28;20234;-74
2023/04/03 07:01:32;;;;;;;0.28;0.28;;;3.50;99.90;;;3.47;99.49;101166.38;5028560;28;20235;-74
2023/04/03 07:04:00;;;;;;;0.20;0.20;;;;;;;3.48;99.42;101169.06;5025346;28;20228;-74
2023/04/03 07:06:27;;;;;;;0.20;0.20;;;;;;;3.63;99.49;101184.59;5027390;28;20234;-75
2023/04/03 07:08:55;;;;;;;0.20;0.20;;;3.80;99.90;;;3.76;99.54;101194.84;5028944;28;20227;-74
2023/04/03 07:11:22;;;;;;;0.30;0.30;;;3.80;99.90;;;3.82;99.36;101199.47;5027447;28;20231;-74
2023/04/03 07:13:50;;;;;;;0.28;0.28;;;4.00;99.90;;;4.00;98.98;101204.72;5031085;28;20265;-74
2023/04/03 07:16:17;;;;;;;0.20;0.20;;;4.00;99.90;;;3.98;98.26;101204.66;5022741;28;20329;-74
2023/04/03 07:18:45;;;;;;;0.20;0.20;;;4.10;99.90;;;4.05;98.16;101196.25;5024786;28;20227;-74
2023/04/03 07:21:13;;;;;;;0.20;0.20;;;4.10;99.90;;;4.16;97.37;101199.38;5029375;28;20243;-75
2023/04/03 07:23:40;;;;;;;0.20;0.20;;;3.70;99.90;;;4.33;96.43;101195.81;5027228;28;20239;-74
2023/04/03 07:26:07;;;;;;;0.20;0.20;;;;;;;4.27;96.22;101192.91;5007044;28;20231;-74
2023/04/03 07:28:36;;;;;;;0.20;0.20;;;4.40;99.90;;;4.31;95.13;101191.34;5025665;28;20227;-74
2023/04/03 07:31:08;;;;;;;0.20;0.20;;;4.50;99.90;;;4.42;95.28;101190.13;5024470;28;20281;-74
2023/04/03 07:33:36;;;;;;;0.20;0.20;;;;;;;4.58;94.82;101194.31;5024399;28;20961;-74
2023/04/03 07:36:06;;;;;;;0.20;0.20;;;4.70;99.90;;;4.66;94.22;101192.94;5028435;28;20258;-74
2023/04/03 07:38:35;;;;;;;0.20;0.20;;;4.70;99.90;;;4.69;93.03;101183.50;5025515;28;20226;-74
2023/04/03 07:41:03;;;;;;;0.20;0.20;;;4.70;99.90;;;4.80;93.02;101181.34;5026672;28;20235;-74
2023/04/03 07:43:31;;;;;;;0.20;0.20;;;;;;;4.79;92.61;101176.94;5028042;28;20246;-74
2023/04/03 07:45:58;;;;;;;0.10;0.10;;;4.90;99.90;;;4.82;91.79;101177.06;5023381;28;20320;-74
2023/04/03 07:48:26;;;;;;;0.20;0.20;;;;;;;4.86;91.40;101167.63;5023917;28;20259;-74
2023/04/03 07:50:53;;;;;;;0.20;0.20;;;5.00;99.90;;;4.99;91.54;101177.81;5024397;28;20242;-74
2023/04/03 07:53:21;;;;;;;0.20;0.20;;;;;;;5.00;90.46;101161.25;5026920;28;20334;-74
2023/04/03 07:55:48;;;;;;;0.30;0.30;;;;;;;5.10;89.70;101163.44;5026902;28;20227;-75
2023/04/03 07:58:18;;;;;;;0.20;0.20;;;5.20;99.90;;;5.17;90.25;101168.09;5026915;28;20281;-74
2023/04/03 08:00:45;;;;;;;0.20;0.20;;;5.20;99.90;;;5.23;89.59;101168.38;5023758;28;20269;-74
2023/04/03 08:03:13;;;;;;;0.20;0.20;;;;;;;5.35;89.11;101170.63;5027503;28;20231;-76
2023/04/03 08:05:43;;;;;;;0.10;0.10;;;5.40;99.90;;;5.44;89.20;101165.75;5028444;28;20230;-74
2023/04/03 08:08:12;;;;;;;0.20;0.20;;;5.60;99.90;;;5.61;89.03;101185.72;5024858;28;20231;-74
2023/04/03 08:10:40;;;;;;;0.70;0.70;;;5.60;99.90;;;5.70;86.90;101145.81;5002928;28;20314;-74
2023/04/03 08:13:07;;;;;;;0.20;0.20;;;;;;;5.83;85.29;101113.09;5049229;22;20289;-75
2023/04/03 08:15:35;;;;;;;0.20;0.20;;;5.80;99.90;;;5.84;83.63;101073.78;5003908;28;20255;-76
2023/04/03 08:18:03;;;;;;;0.20;0.20;;;5.90;99.90;;;5.91;81.48;101011.94;4990952;28;20278;-75
2023/04/03 08:20:30;;;;;;;0.20;0.20;;;6.10;99.90;;;6.06;80.72;101007.25;4986887;28;20232;-76
2023/04/03 08:22:57;;;;;;;0.20;0.20;;;6.10;99.90;;;6.15;79.91;100988.28;4987421;28;20259;-76
2023/04/03 08:25:25;;;;;;;0.10;0.10;;;6.30;99.90;;;6.30;79.10;100971.34;4983973;28;20330;-74
2023/04/03 08:27:52;;;;;;;0.15;0.15;;;;;;;6.16;77.51;100900.78;4987991;28;20255;-73
2023/04/03 08:30:20;;;;;;;0.20;0.20;;;6.30;99.90;;;6.30;76.77;100884.66;4988416;28;20336;-75
2023/04/03 08:32:47;;;;;;;0.20;0.20;;;6.50;99.90;;;6.42;76.12;100871.94;4992840;28;20232;-75
2023/04/03 08:35:14;;;;;;;0.20;0.20;;;6.50;99.90;;;6.42;74.87;100826.38;4987388;28;20244;-75
2023/04/03 08:37:41;;;;;;;0.20;0.20;;;6.50;99.90;;;6.65;74.68;100840.28;4992715;28;20240;-75
2023/04/03 08:40:15;;;;;;;0.30;0.30;;;6.70;99.90;;;6.68;72.78;100777.28;4992597;28;20255;-75
2023/04/03 08:43:10;;;;;;;0.10;0.10;;;6.70;99.90;;;6.94;71.87;100771.06;4990710;28;20227;-76
2023/04/03 08:45:55;;;;;;;0.10;0.10;;;6.90;99.90;;;7.02;70.73;100722.22;4990689;28;20232;-75
2023/04/03 08:48:35;;;;;;;0.52;0.52;;;7.00;99.90;;;6.98;71.56;100745.75;4985987;28;20247;-76
2023/04/03 08:51:17;;;;;;;0.10;0.10;;;7.00;99.90;;;7.09;69.92;100696.97;4987268;28;20235;-76
2023/04/03 08:54:00;;;;;;;0.20;0.20;;;7.20;99.90;;;7.21;69.23;100680.63;4988705;28;20236;-75
2023/04/03 08:56:27;;;;;;;0.10;0.10;;;7.20;99.90;;;7.03;67.56;100574.09;4984303;28;20232;-74
2023/04/03 08:59:04;;;;;;;0.10;0.10;;;7.20;99.90;;;7.18;66.84;100556.94;4988630;28;20229;-73
2023/04/03 09:01:37;;;;;;;0.10;0.10;;;7.30;99.90;;;7.17;66.05;100516.59;4988437;28;20247;-73
2023/04/03 09:04:14;;;;;;;0.10;0.10;;;7.30;99.90;;;7.35;65.32;100497.72;4989725;28;20260;-73
2023/04/03 09:06:58;;;;;;;0.20;0.20;;;7.40;99.90;;;7.28;63.78;100395.84;4972460;28;20232;-74
2023/04/03 09:09:41;;;;;;;0.20;0.20;;;7.40;99.90;;;7.39;63.76;100421.53;4985127;28;20609;-74
2023/04/03 09:12:39;;;;;;;0.10;0.10;;;7.60;99.90;;;7.53;62.90;100394.63;5071285;23;20328;-75
2023/04/03 09:15:19;;;;;;;0.10;0.10;;;7.60;99.90;;;7.80;61.97;100378.47;5018983;28;20481;-76
2023/04/03 09:18:22;;;;;;;0.10;0.10;;;7.80;99.90;;;7.87;61.43;100356.72;5025830;28;20237;-76
2023/04/03 09:21:07;;;;;;;0.10;0.10;;;7.90;99.90;;;7.76;61.51;100324.00;5024455;28;20247;-75
2023/04/03 09:23:50;;;;;;;0.10;0.10;;;7.80;99.90;;;7.85;60.53;100277.69;5023104;28;20235;-75
2023/04/03 09:26:29;;;;;;;0.10;0.10;;;7.60;99.90;;;7.39;60.58;100182.13;5020338;28;20284;-76
2023/04/03 09:29:06;;;;;;;0.10;0.10;;;7.70;99.90;;;7.72;59.54;100212.50;5024494;28;20239;-75
2023/04/03 09:31:39;;;;;;;0.10;0.10;;;8.00;99.90;;;8.00;58.92;100195.44;5023610;28;20707;-76
2023/04/03 09:34:26;;;;;;;0.10;0.10;;;8.00;99.90;;;8.34;59.47;100292.59;5039228;28;20667;-76
2023/04/03 09:37:05;;;;;;;0.10;0.10;;;8.30;99.90;;;8.27;58.86;100206.38;5028472;28;20237;-76
2023/04/03 09:39:51;;;;;;;0.10;0.10;;;8.40;99.90;;;8.51;58.33;100231.34;5023637;28;20423;-76
2023/04/03 09:42:24;;;;;;;0.10;0.10;;;8.60;99.90;;;8.45;57.62;100166.28;5019570;28;20239;-77
2023/04/03 09:45:00;;;;;;;0.98;0.98;;;8.60;99.90;;;8.07;57.56;100083.19;5042726;28;20658;-76
2023/04/03 09:47:36;;;;;;;0.20;0.20;;;8.00;99.90;;;7.72;57.89;100018.63;5028547;28;20401;-77
2023/04/03 09:50:23;;;;;;;0.10;0.10;;;8.00;99.90;;;8.38;58.14;100163.53;5025636;28;20231;-76
2023/04/03 09:52:51;;;;;;;0.10;0.10;;;8.30;99.90;;;9.08;58.31;100267.25;5024509;28;20255;-76
2023/04/03 09:55:26;;;;;;;0.10;0.10;;;8.90;99.90;;;8.85;58.18;100201.94;5028252;28;20235;-77
2023/04/03 09:58:02;;;;;;;0.10;0.10;;;8.40;99.90;;;7.84;57.42;99960.03;5025317;28;20250;-75
2023/04/03 10:00:38;;;;;;;0.10;0.10;;;8.30;99.90;;;8.20;58.27;100087.75;5027507;28;20305;-76
2023/04/03 10:03:39;;;;;;;0.10;0.10;;;8.70;99.90;;;8.87;58.59;100202.84;5026524;28;20249;-76
2023/04/03 10:06:23;;;;;;;0.10;0.10;;;8.60;99.90;;;8.58;58.50;100139.19;5025176;28;20258;-75
2023/04/03 10:09:04;;;;;;;0.10;0.10;;;8.50;99.90;;;8.21;58.24;100052.63;5021761;28;20238;-75
2023/04/03 10:11:31;;;;;;;0.10;0.10;;;8.70;99.90;;;8.90;58.36;100163.31;5028831;28;20297;-75
2023/04/03 10:14:01;;;;;;;0.20;0.20;;;8.60;99.90;;;8.51;57.97;100068.84;5028392;28;20296;-76
2023/04/03 10:16:49;;;;;;;0.10;0.10;;;8.50;99.90;;;8.23;57.63;99998.22;5029420;28;20286;-77
2023/04/03 10:19:44;;;;;;;0.10;0.10;;;8.40;99.90;;;8.33;57.80;100014.19;5029931;28;20234;-77
2023/04/03 10:22:42;;;;;;;0.10;0.10;;;8.50;99.90;;;9.47;57.95;100198.22;5030680;28;20239;-77
2023/04/03 10:25:23;;;;;;;0.20;0.20;;;9.20;99.90;;;8.78;56.44;99965.44;5026441;28;20230;-76
2023/04/03 10:28:03;;;;;;;0.10;0.10;;;8.60;99.90;;;8.39;56.89;99901.81;5030549;28;20284;-76
2023/04/03 10:31:00;;;;;;;0.10;0.10;;;8.60;99.90;;;8.63;57.92;100016.25;5028464;28;20239;-77
2023/04/03 10:34:08;;;;;;;0.10;0.10;;;9.00;99.90;;;8.73;56.22;99929.34;5026364;28;20263;-78
2023/04/03 10:36:43;;;;;;;0.10;0.10;;;9.10;99.90;;;9.15;56.75;100019.41;5026933;28;20761;-77
2023/04/03 10:39:57;;;;;;;0.20;0.20;;;9.10;99.90;;;9.17;56.42;100016.78;5024222;28;20239;-77
2023/04/03 10:42:36;;;;;;;0.10;0.10;;;9.30;99.90;;;9.08;56.52;99964.78;5022539;28;20642;-77
2023/04/03 10:45:30;;;;;;;0.10;0.10;;;9.40;99.90;;;9.48;56.60;100042.50;5023307;28;20293;-79
2023/04/03 10:48:15;;;;;;;0.10;0.10;;;9.30;99.90;;;8.88;55.36;99847.75;5045578;28;20310;-79
2023/04/03 10:50:52;;;;;;;0.10;0.10;;;9.10;99.90;;;8.90;55.55;99851.25;5027590;28;20241;-80
2023/04/03 10:54:09;;;;;;;0.10;0.10;;;9.10;99.90;;;9.04;55.61;99862.78;5030964;28;20247;-77
2023/04/03 10:56:48;;;;;;;0.10;0.10;;;9.30;99.90;;;9.16;54.43;99820.69;5026116;28;20286;-77
2023/04/03 10:59:48;;;;;;;0.10;0.10;;;9.80;99.90;;;9.87;55.14;99967.06;5023437;28;20286;-79
2023/04/03 11:02:42;;;;;;;0.10;0.10;;;9.70;99.90;;;9.35;54.79;99824.28;5024864;28;20235;-80
2023/04/03 11:05:30;;;;;;;0.10;0.10;;;9.70;99.90;;;9.73;54.83;99886.91;5027225;28;20266;-76
2023/04/03 11:08:04;;;;;;;0.10;0.10;;;9.90;99.90;;;9.83;55.91;99942.38;5027093;28;20254;-75